Time;durP1;ratioP1;P1;durP2;ratioP2;P2;SDS_P1;SDS_P2;PMS_P1;PMS_P2;Temp;Humidity;BMP_temperature;BMP_pressure;BME280_temperature;BME280_humidity;BME280_pressure;Samples;Min_cycle;Max_cycle;Signal;HPM_P1;HPM_P2
2021/10/09 00:00:09;;;;;;;10.55;7.63;;;3.80;96.70;;;;;;5096055;28;20409;-77
2021/10/09 00:02:35;;;;;;;14.57;7.82;;;3.80;97.60;;;;;;5094708;28;20020;-77
2021/10/09 00:05:01;;;;;;;11.13;7.55;;;3.70;98.60;;;;;;5095919;28;20020;-77
2021/10/09 00:07:27;;;;;;;15.25;8.63;;;3.70;99.40;;;;;;5078962;28;20040;-78
2021/10/09 00:09:58;;;;;;;14.30;8.65;;;3.70;99.90;;;;;;5075554;28;20054;-77
2021/10/09 00:12:24;;;;;;;14.52;8.30;;;3.70;99.90;;;;;;5074507;28;20029;-77
2021/10/09 00:14:49;;;;;;;14.63;8.00;;;3.60;99.90;;;;;;5075465;28;20025;-77
2021/10/09 00:17:18;;;;;;;15.25;8.45;;;3.50;99.90;;;;;;5075515;28;20394;-78
2021/10/09 00:19:43;;;;;;;13.23;7.65;;;3.50;99.90;;;;;;5074009;28;20483;-77
2021/10/09 00:22:09;;;;;;;14.20;7.80;;;3.50;99.90;;;;;;5075412;28;20059;-77
2021/10/09 00:24:35;;;;;;;14.10;8.02;;;3.50;99.90;;;;;;5092973;28;20039;-77
2021/10/09 00:27:00;;;;;;;14.13;7.97;;;3.50;99.90;;;;;;5095167;28;20024;-78
2021/10/09 00:29:26;;;;;;;14.20;7.07;;;3.50;99.90;;;;;;5092414;28;20020;-77
2021/10/09 00:31:51;;;;;;;13.38;7.85;;;3.50;99.90;;;;;;5095454;28;20512;-77
2021/10/09 00:34:17;;;;;;;11.60;8.20;;;3.50;99.90;;;;;;5093961;28;20032;-77
2021/10/09 00:36:43;;;;;;;16.48;8.60;;;3.40;99.90;;;;;;5095281;28;20059;-78
2021/10/09 00:39:08;;;;;;;15.73;9.15;;;3.40;99.90;;;;;;5093976;28;20058;-77
2021/10/09 00:41:34;;;;;;;13.73;8.07;;;3.40;99.90;;;;;;5093958;28;20012;-77
2021/10/09 00:44:14;;;;;;;12.20;7.85;;;3.40;99.90;;;;;;5095125;28;20373;-77
2021/10/09 00:46:41;;;;;;;17.40;8.95;;;3.30;99.90;;;;;;5095054;28;20032;-77
2021/10/09 00:49:14;;;;;;;14.90;8.85;;;3.30;99.90;;;;;;5095057;28;20024;-77
2021/10/09 00:51:40;;;;;;;14.45;8.88;;;3.30;99.90;;;;;;5093993;28;20513;-77
2021/10/09 00:54:06;;;;;;;12.43;8.45;;;3.20;99.90;;;;;;5088050;28;20042;-77
2021/10/09 00:56:36;;;;;;;14.88;8.80;;;3.30;99.90;;;;;;5073371;28;20016;-78
2021/10/09 00:59:03;;;;;;;15.38;7.97;;;3.20;99.90;;;;;;5073229;28;20024;-77
2021/10/09 01:01:29;;;;;;;15.52;9.40;;;3.20;99.90;;;;;;5073259;28;20023;-77
2021/10/09 01:03:57;;;;;;;12.15;8.25;;;3.20;99.90;;;;;;5073277;28;20062;-77
2021/10/09 01:06:23;;;;;;;16.05;8.55;;;3.20;99.90;;;;;;5073221;28;20028;-77
2021/10/09 01:08:49;;;;;;;16.73;8.55;;;3.20;99.90;;;;;;5074425;28;20029;-77
2021/10/09 01:11:15;;;;;;;14.55;8.27;;;3.10;99.90;;;;;;5074439;28;20017;-77
2021/10/09 01:13:40;;;;;;;15.77;8.35;;;3.10;99.90;;;;;;5074235;28;20028;-77
2021/10/09 01:16:24;;;;;;;17.35;7.80;;;3.10;99.90;;;;;;5073156;28;20287;-77
2021/10/09 01:18:51;;;;;;;16.70;8.75;;;3.00;99.90;;;;;;5074218;28;20480;-77
2021/10/09 01:21:18;;;;;;;15.77;9.00;;;3.00;99.90;;;;;;5074264;28;20024;-78
2021/10/09 01:23:44;;;;;;;13.25;8.32;;;3.00;99.90;;;;;;5075777;28;20017;-77
2021/10/09 01:26:10;;;;;;;15.45;8.50;;;3.00;99.90;;;;;;5076229;28;20082;-77
2021/10/09 01:28:38;;;;;;;17.42;8.68;;;3.00;99.90;;;;;;5072394;28;20016;-77
2021/10/09 01:31:04;;;;;;;18.20;8.73;;;3.00;99.90;;;;;;5072687;28;20021;-78
2021/10/09 01:33:29;;;;;;;19.80;9.00;;;3.00;99.90;;;;;;5092751;28;20036;-77
2021/10/09 01:35:56;;;;;;;17.58;8.90;;;3.00;99.90;;;;;;5092922;28;20067;-78
2021/10/09 01:38:25;;;;;;;15.07;8.25;;;2.90;99.90;;;;;;5090317;28;20081;-77
2021/10/09 01:40:51;;;;;;;14.32;8.27;;;3.00;99.90;;;;;;5092820;28;20478;-77
2021/10/09 01:43:19;;;;;;;14.95;8.57;;;3.00;99.90;;;;;;5094012;28;20088;-77
2021/10/09 01:45:46;;;;;;;13.52;8.35;;;3.00;99.90;;;;;;5093403;28;20023;-77
2021/10/09 01:48:12;;;;;;;14.90;8.82;;;3.00;99.90;;;;;;5093879;28;20470;-77
2021/10/09 01:50:38;;;;;;;15.73;8.20;;;3.00;99.90;;;;;;5092531;28;20020;-77
2021/10/09 01:53:07;;;;;;;17.08;8.38;;;2.90;99.90;;;;;;5093844;28;20032;-76
2021/10/09 01:55:37;;;;;;;16.13;9.00;;;3.00;99.90;;;;;;5076366;28;20052;-76
2021/10/09 01:58:04;;;;;;;15.07;9.10;;;3.00;99.90;;;;;;5073580;28;20036;-77
2021/10/09 02:00:30;;;;;;;17.33;9.65;;;3.00;99.90;;;;;;5073214;28;20393;-77
2021/10/09 02:03:01;;;;;;;18.98;9.73;;;3.00;99.90;;;;;;5073321;28;20104;-78
2021/10/09 02:05:27;;;;;;;23.58;10.05;;;3.00;99.90;;;;;;5073440;28;20111;-77
2021/10/09 02:07:53;;;;;;;18.30;8.95;;;3.00;99.90;;;;;;5073261;28;20024;-77
2021/10/09 02:10:19;;;;;;;12.73;7.68;;;3.00;99.90;;;;;;5073266;28;20370;-77
2021/10/09 02:12:44;;;;;;;14.75;9.13;;;3.00;99.90;;;;;;5073151;28;20453;-77
2021/10/09 02:15:15;;;;;;;14.85;9.02;;;3.00;99.90;;;;;;5073204;28;20103;-77
2021/10/09 02:25:47;;;;;;;15.82;9.07;;;2.90;99.90;;;;;;5091631;28;20063;-77
2021/10/09 02:28:16;;;;;;;12.70;9.10;;;3.00;99.90;;;;;;5091703;28;20021;-76
2021/10/09 02:30:42;;;;;;;14.80;9.38;;;3.00;99.90;;;;;;5090282;28;20023;-77
2021/10/09 02:33:08;;;;;;;14.68;8.80;;;3.00;99.90;;;;;;5072989;28;20097;-77
2021/10/09 02:35:34;;;;;;;17.23;9.20;;;3.00;99.90;;;;;;5072957;28;20025;-77
2021/10/09 02:38:00;;;;;;;32.70;9.82;;;3.00;99.90;;;;;;5072958;28;20103;-77
2021/10/09 02:40:26;;;;;;;16.90;10.10;;;3.00;99.90;;;;;;5072891;28;20031;-76
2021/10/09 02:42:52;;;;;;;18.40;9.43;;;3.00;99.90;;;;;;5072852;28;20390;-77
2021/10/09 02:45:17;;;;;;;19.15;10.02;;;2.90;99.90;;;;;;5072802;28;20382;-77
2021/10/09 02:47:43;;;;;;;16.58;9.13;;;2.90;99.90;;;;;;5071559;28;20048;-77
2021/10/09 02:50:17;;;;;;;15.55;8.60;;;2.90;99.90;;;;;;5075964;28;20031;-76
2021/10/09 02:52:42;;;;;;;15.48;8.52;;;2.80;99.90;;;;;;5091646;28;20515;-78
2021/10/09 02:55:09;;;;;;;15.95;8.57;;;2.80;99.90;;;;;;5072434;28;20021;-77
2021/10/09 02:57:38;;;;;;;14.07;9.13;;;2.80;99.90;;;;;;5072573;28;20390;-77
2021/10/09 03:00:05;;;;;;;16.40;9.25;;;2.80;99.90;;;;;;5072820;28;20053;-77
2021/10/09 03:02:34;;;;;;;15.48;9.25;;;2.80;99.90;;;;;;5071410;28;20394;-78
2021/10/09 03:05:00;;;;;;;14.55;9.18;;;2.90;99.90;;;;;;5072679;28;20473;-76
2021/10/09 03:07:26;;;;;;;15.82;8.18;;;2.80;99.90;;;;;;5071406;28;20027;-77
2021/10/09 03:09:51;;;;;;;17.83;8.88;;;2.80;99.90;;;;;;5071322;28;20017;-77
2021/10/09 03:12:17;;;;;;;15.60;9.27;;;2.80;99.90;;;;;;5072540;28;20477;-78
2021/10/09 03:14:43;;;;;;;15.57;8.40;;;2.80;99.90;;;;;;5070252;28;20443;-77
2021/10/09 03:17:08;;;;;;;19.35;9.43;;;2.80;99.90;;;;;;5072428;28;20055;-77
2021/10/09 03:19:34;;;;;;;13.82;8.82;;;2.80;99.90;;;;;;5071187;28;20024;-76
2021/10/09 03:21:59;;;;;;;18.70;9.10;;;2.70;99.90;;;;;;5072615;28;20021;-77
2021/10/09 03:24:25;;;;;;;16.25;9.55;;;2.70;99.90;;;;;;5072162;28;20452;-77
2021/10/09 03:26:51;;;;;;;14.18;9.48;;;2.70;99.90;;;;;;5071182;28;20394;-78
2021/10/09 03:29:16;;;;;;;14.52;8.52;;;2.70;99.90;;;;;;5072389;28;20437;-76
2021/10/09 03:31:43;;;;;;;20.20;8.93;;;2.80;99.90;;;;;;5071093;28;20028;-78
2021/10/09 03:34:09;;;;;;;18.35;10.38;;;2.80;99.90;;;;;;5091198;28;20032;-77
2021/10/09 03:36:35;;;;;;;16.17;9.73;;;2.80;99.90;;;;;;5108252;28;20020;-78
2021/10/09 03:39:02;;;;;;;17.20;9.25;;;2.80;99.90;;;;;;5092514;28;20758;-77
2021/10/09 03:41:28;;;;;;;16.90;10.35;;;2.80;99.90;;;;;;5091239;28;20023;-77
2021/10/09 03:43:54;;;;;;;18.55;10.38;;;2.80;99.90;;;;;;5108170;28;20012;-77
2021/10/09 03:46:25;;;;;;;18.48;9.18;;;2.80;99.90;;;;;;5108220;28;20136;-77
2021/10/09 03:54:06;;;;;;;12.45;8.88;;;2.70;99.90;;;;;;5089049;28;20078;-77
2021/10/09 03:56:32;;;;;;;16.33;8.40;;;2.60;99.90;;;;;;5072169;28;20485;-77
2021/10/09 03:58:57;;;;;;;18.83;9.00;;;2.50;99.90;;;;;;5070742;28;20033;-77
2021/10/09 04:01:23;;;;;;;15.52;9.05;;;2.50;99.90;;;;;;5072790;28;20020;-77
2021/10/09 04:03:49;;;;;;;20.60;10.05;;;2.50;99.90;;;;;;5074432;28;20466;-77
2021/10/09 04:06:14;;;;;;;14.07;8.95;;;2.50;99.90;;;;;;5074472;28;20397;-77
2021/10/09 04:08:40;;;;;;;15.95;8.88;;;2.50;99.90;;;;;;5075480;28;20012;-77
2021/10/09 04:11:05;;;;;;;15.13;8.77;;;2.50;99.90;;;;;;5075520;28;20056;-76
2021/10/09 04:13:31;;;;;;;17.23;9.55;;;2.50;99.90;;;;;;5075403;28;20032;-77
2021/10/09 04:15:57;;;;;;;23.98;9.77;;;2.50;99.90;;;;;;5075504;28;20052;-78
2021/10/09 04:18:22;;;;;;;17.13;8.95;;;2.50;99.90;;;;;;5074105;28;20016;-77
2021/10/09 04:20:48;;;;;;;23.83;10.75;;;2.50;99.90;;;;;;5075385;28;20363;-78
2021/10/09 04:23:14;;;;;;;18.85;8.65;;;2.50;99.90;;;;;;5074117;28;20032;-77
2021/10/09 04:25:39;;;;;;;19.95;9.55;;;2.50;99.90;;;;;;5079278;28;20035;-77
2021/10/09 04:28:05;;;;;;;16.17;8.63;;;2.50;99.90;;;;;;5072893;28;20035;-77
2021/10/09 04:30:31;;;;;;;15.10;8.98;;;2.50;99.90;;;;;;5075242;28;20527;-78
2021/10/09 04:32:57;;;;;;;15.75;8.52;;;2.50;99.90;;;;;;5075188;28;20036;-78
2021/10/09 04:35:23;;;;;;;20.67;9.25;;;2.50;99.90;;;;;;5075092;28;20032;-77
2021/10/09 04:37:48;;;;;;;16.77;8.85;;;2.50;99.90;;;;;;5073856;28;20025;-77
2021/10/09 04:40:14;;;;;;;15.63;9.50;;;2.60;99.90;;;;;;5075039;28;20025;-77
2021/10/09 04:42:40;;;;;;;18.83;9.23;;;2.60;99.90;;;;;;5073734;28;20029;-77
2021/10/09 04:45:06;;;;;;;17.30;10.10;;;2.60;99.90;;;;;;5072426;28;20032;-77
2021/10/09 04:47:33;;;;;;;18.83;9.75;;;2.60;99.90;;;;;;5072847;28;20035;-77
2021/10/09 04:49:59;;;;;;;16.05;9.70;;;2.60;99.90;;;;;;5072840;28;20021;-77
2021/10/09 04:52:24;;;;;;;22.85;11.27;;;2.60;99.90;;;;;;5072738;28;20390;-77
2021/10/09 04:54:50;;;;;;;20.13;11.32;;;2.60;99.90;;;;;;5076831;28;20061;-76
2021/10/09 04:57:16;;;;;;;17.63;9.25;;;2.60;99.90;;;;;;5092973;28;20020;-78
2021/10/09 04:59:41;;;;;;;14.43;8.48;;;2.60;99.90;;;;;;5091466;28;20035;-77
2021/10/09 05:02:07;;;;;;;18.60;9.70;;;2.60;99.90;;;;;;5093624;28;20020;-77
2021/10/09 05:04:33;;;;;;;17.70;9.75;;;2.60;99.90;;;;;;5094774;28;20020;-77
2021/10/09 05:06:58;;;;;;;17.88;9.73;;;2.70;99.90;;;;;;5093575;28;20016;-78
2021/10/09 05:09:24;;;;;;;16.95;9.77;;;2.60;99.90;;;;;;5093388;28;20013;-77
2021/10/09 05:11:50;;;;;;;14.80;9.80;;;2.60;99.90;;;;;;5092724;28;20066;-78
2021/10/09 05:14:15;;;;;;;21.33;9.77;;;2.60;99.90;;;;;;5094234;28;20524;-76
2021/10/09 05:16:41;;;;;;;18.83;9.55;;;2.60;99.90;;;;;;5093905;28;20028;-77
2021/10/09 05:19:07;;;;;;;16.40;9.30;;;2.60;99.90;;;;;;5093143;28;20039;-77
2021/10/09 05:21:33;;;;;;;17.67;9.43;;;2.60;99.90;;;;;;5085157;28;20103;-78
2021/10/09 05:23:58;;;;;;;14.32;8.85;;;2.60;99.90;;;;;;5076292;28;20070;-77
2021/10/09 05:26:24;;;;;;;16.30;9.05;;;2.60;99.90;;;;;;5085518;28;20093;-77
2021/10/09 05:28:50;;;;;;;17.70;10.93;;;2.60;99.90;;;;;;5088897;28;20024;-76
2021/10/09 05:31:33;;;;;;;17.55;9.32;;;2.60;99.90;;;;;;5080611;28;20059;-77
2021/10/09 05:33:58;;;;;;;19.97;11.13;;;2.70;99.90;;;;;;5082600;28;20451;-76
2021/10/09 05:36:25;;;;;;;14.93;9.45;;;2.70;99.90;;;;;;5083912;28;20263;-78
2021/10/09 05:38:52;;;;;;;24.40;11.73;;;2.80;99.90;;;;;;5084460;28;20024;-77
2021/10/09 05:41:18;;;;;;;21.08;10.43;;;2.80;99.90;;;;;;5086352;28;20012;-77
2021/10/09 05:43:45;;;;;;;19.95;10.77;;;2.90;99.90;;;;;;5083806;28;20520;-77
2021/10/09 05:46:11;;;;;;;19.33;10.10;;;2.90;99.90;;;;;;5082621;28;20021;-76
2021/10/09 05:48:39;;;;;;;17.45;9.73;;;2.90;99.90;;;;;;5078387;28;20036;-77
2021/10/09 05:51:24;;;;;;;15.75;9.80;;;3.00;99.90;;;;;;5087358;28;20024;-77
2021/10/09 06:25:17;;;;;;;16.38;10.27;;;3.40;99.90;;;;;;5084150;28;20593;-77
2021/10/09 06:50:24;;;;;;;17.13;10.10;;;4.50;93.90;;;;;;5073152;28;20110;-76
2021/10/09 07:01:02;;;;;;;16.67;10.45;;;4.60;92.80;;;;;;5070500;28;20122;-76
2021/10/09 07:03:28;;;;;;;22.88;12.55;;;4.50;91.80;;;;;;5086489;28;20421;-77
2021/10/09 07:05:53;;;;;;;20.98;12.50;;;4.60;92.60;;;;;;5085518;28;20024;-76
2021/10/09 07:08:19;;;;;;;20.60;11.48;;;4.70;92.90;;;;;;5073567;28;20116;-77
2021/10/09 07:10:47;;;;;;;23.77;12.63;;;4.80;92.50;;;;;;5071359;28;20024;-77
2021/10/09 07:13:13;;;;;;;17.95;10.30;;;4.90;92.70;;;;;;5071052;28;20029;-76
2021/10/09 07:15:39;;;;;;;19.13;10.10;;;5.00;90.70;;;;;;5072516;28;20032;-77
2021/10/09 07:18:11;;;;;;;13.73;9.38;;;5.10;91.10;;;;;;5071741;28;20021;-76
2021/10/09 07:20:38;;;;;;;19.05;11.57;;;5.20;89.00;;;;;;5090431;28;20036;-76
2021/10/09 07:23:05;;;;;;;17.48;10.50;;;5.30;90.60;;;;;;5082583;28;20108;-77
2021/10/09 07:25:32;;;;;;;19.50;11.07;;;5.50;89.40;;;;;;5075987;28;20024;-76
2021/10/09 07:27:58;;;;;;;21.38;11.55;;;5.70;87.50;;;;;;5082903;28;20024;-75
2021/10/09 07:30:24;;;;;;;19.83;9.77;;;5.80;86.00;;;;;;5071890;28;20023;-75
2021/10/09 07:32:50;;;;;;;15.95;9.95;;;5.90;84.40;;;;;;5069289;28;20032;-76
2021/10/09 07:35:17;;;;;;;15.00;10.23;;;6.00;84.60;;;;;;5070841;28;20371;-75
2021/10/09 07:37:43;;;;;;;17.65;8.98;;;6.20;81.60;;;;;;5079265;28;20051;-76
2021/10/09 07:40:09;;;;;;;24.48;10.20;;;6.30;78.10;;;;;;5079004;28;20031;-75
2021/10/09 07:42:36;;;;;;;21.67;10.15;;;6.20;75.80;;;;;;5090633;28;20020;-76
2021/10/09 07:45:03;;;;;;;18.33;10.52;;;6.30;76.40;;;;;;5083169;28;20509;-76
2021/10/09 07:47:29;;;;;;;16.08;10.10;;;6.40;75.80;;;;;;5079423;28;20024;-75
2021/10/09 07:49:54;;;;;;;14.20;9.82;;;6.50;75.00;;;;;;5076703;28;20017;-75
2021/10/09 07:52:20;;;;;;;15.68;9.15;;;6.60;75.00;;;;;;5075774;28;20044;-75
2021/10/09 07:54:46;;;;;;;18.88;10.07;;;6.80;73.60;;;;;;5093426;28;20109;-76
2021/10/09 07:57:11;;;;;;;14.35;10.10;;;6.90;73.40;;;;;;5094722;28;20508;-76
2021/10/09 07:59:37;;;;;;;16.02;9.52;;;7.10;72.10;;;;;;5092605;28;20038;-75
2021/10/09 08:02:05;;;;;;;18.05;9.02;;;7.20;71.00;;;;;;5086620;28;20490;-76
2021/10/09 08:04:31;;;;;;;20.60;8.85;;;7.20;69.50;;;;;;5086263;28;20070;-76
2021/10/09 08:06:57;;;;;;;30.60;9.60;;;7.20;69.10;;;;;;5083957;28;20416;-76
2021/10/09 08:09:25;;;;;;;20.20;8.98;;;7.30;68.90;;;;;;5086324;28;20098;-76
2021/10/09 08:11:51;;;;;;;18.13;7.70;;;7.40;67.20;;;;;;5084242;28;20020;-77
2021/10/09 08:14:17;;;;;;;16.20;8.65;;;7.40;66.60;;;;;;5081247;28;20127;-77
2021/10/09 08:16:43;;;;;;;17.33;8.95;;;7.50;66.30;;;;;;5076148;28;20397;-76
2021/10/09 08:19:09;;;;;;;16.80;8.50;;;7.60;66.80;;;;;;5085371;28;20027;-76
2021/10/09 08:21:40;;;;;;;18.85;7.95;;;7.60;65.10;;;;;;5094088;28;20020;-77
2021/10/09 08:39:43;;;;;;;16.35;7.68;;;8.10;64.00;;;;;;5074714;28;20529;-76
2021/10/09 08:42:09;;;;;;;12.77;6.70;;;8.20;62.90;;;;;;5072170;28;20155;-75
2021/10/09 08:44:35;;;;;;;12.10;7.50;;;8.30;62.30;;;;;;5072846;28;20023;-76
2021/10/09 08:47:02;;;;;;;17.65;8.40;;;8.40;63.40;;;;;;5071418;28;20020;-78
2021/10/09 08:49:27;;;;;;;11.80;7.18;;;8.60;63.20;;;;;;5089167;28;20052;-75
2021/10/09 08:51:53;;;;;;;12.27;7.13;;;8.60;61.90;;;;;;5093324;28;20039;-75
2021/10/09 08:54:19;;;;;;;21.70;8.52;;;8.50;60.40;;;;;;5087201;28;20040;-74
2021/10/09 08:56:50;;;;;;;16.35;7.93;;;8.50;60.10;;;;;;5073309;28;20028;-75
2021/10/09 08:59:25;;;;;;;12.98;6.57;;;8.50;58.50;;;;;;5073707;28;20039;-75
2021/10/09 09:02:12;;;;;;;13.00;6.60;;;8.50;58.40;;;;;;5073499;28;20013;-75
2021/10/09 09:32:16;;;;;;;10.15;5.80;;;9.10;53.40;;;;;;5073628;28;20082;-76
2021/10/09 09:40:17;;;;;;;10.38;5.13;;;9.00;52.20;;;;;;5073184;28;20539;-75
2021/10/09 09:42:47;;;;;;;8.07;5.30;;;9.00;51.50;;;;;;5072888;28;20025;-76
2021/10/09 09:45:24;;;;;;;13.80;5.13;;;9.10;52.30;;;;;;5074815;28;20105;-75
2021/10/09 09:47:53;;;;;;;9.57;4.47;;;9.30;52.50;;;;;;5084539;28;20146;-76
2021/10/09 09:50:19;;;;;;;10.23;5.50;;;9.30;51.00;;;;;;5090697;28;20477;-76
2021/10/09 09:52:45;;;;;;;8.85;4.68;;;9.30;51.00;;;;;;5090067;28;20024;-76
2021/10/09 09:55:16;;;;;;;8.35;3.42;;;9.30;50.10;;;;;;5086711;28;20031;-76
2021/10/09 09:57:42;;;;;;;10.82;4.60;;;9.20;49.10;;;;;;5093606;28;20066;-76
2021/10/09 10:00:13;;;;;;;9.20;4.88;;;9.30;49.50;;;;;;5085947;28;20078;-77
2021/10/09 10:02:50;;;;;;;10.93;4.90;;;9.40;50.10;;;;;;5073481;28;20033;-75
2021/10/09 10:05:17;;;;;;;8.57;5.25;;;9.50;51.30;;;;;;5082374;28;20081;-75
2021/10/09 10:07:43;;;;;;;8.40;4.53;;;9.60;51.70;;;;;;5082176;28;20043;-75
2021/10/09 10:10:09;;;;;;;7.28;4.90;;;9.70;51.80;;;;;;5080985;28;20486;-75
2021/10/09 10:12:39;;;;;;;7.47;4.05;;;9.60;51.40;;;;;;5073281;28;20066;-75
2021/10/09 10:15:08;;;;;;;4.47;3.80;;;9.70;51.30;;;;;;5075909;28;20065;-75
2021/10/09 10:17:47;;;;;;;6.70;4.20;;;9.70;48.80;;;;;;5075211;28;20024;-75
2021/10/09 10:20:14;;;;;;;7.13;4.00;;;9.70;49.30;;;;;;5072047;28;20054;-75
2021/10/09 10:22:40;;;;;;;6.43;4.18;;;9.90;50.90;;;;;;5077300;28;20024;-75
2021/10/09 10:25:26;;;;;;;7.53;4.45;;;9.90;50.60;;;;;;5089781;28;20078;-74
2021/10/09 10:28:18;;;;;;;7.10;4.72;;;10.00;50.70;;;;;;5073615;28;20036;-74
2021/10/09 10:30:45;;;;;;;8.15;4.75;;;10.00;50.00;;;;;;5069757;28;20462;-74
2021/10/09 10:33:11;;;;;;;7.10;4.15;;;10.00;50.20;;;;;;5069628;28;20063;-74
2021/10/09 10:35:37;;;;;;;6.40;3.72;;;9.90;49.20;;;;;;5070358;28;20493;-76
2021/10/09 10:38:37;;;;;;;10.88;4.68;;;10.00;49.60;;;;;;5071382;28;20100;-75
2021/10/09 10:41:04;;;;;;;8.90;5.35;;;9.90;49.50;;;;;;5087779;28;20550;-75
2021/10/09 10:49:26;;;;;;;9.15;4.50;;;10.00;48.60;;;;;;5070211;28;20032;-74
2021/10/09 10:57:02;;;;;;;6.35;4.38;;;10.20;48.30;;;;;;5070132;28;20024;-74
2021/10/09 10:59:49;;;;;;;6.13;4.53;;;10.10;47.90;;;;;;5071099;28;20044;-74
2021/10/09 11:02:27;;;;;;;9.55;5.15;;;10.10;48.00;;;;;;5071463;28;20020;-74
2021/10/09 11:05:05;;;;;;;9.07;4.82;;;10.20;48.40;;;;;;5070250;28;20036;-74
2021/10/09 11:07:32;;;;;;;8.93;4.43;;;10.40;49.60;;;;;;5086547;28;20013;-73
2021/10/09 11:10:08;;;;;;;7.32;5.03;;;10.30;47.40;;;;;;5070310;28;20490;-74
2021/10/09 11:12:36;;;;;;;8.18;4.50;;;10.30;47.60;;;;;;5074726;28;20490;-73
2021/10/09 11:15:08;;;;;;;7.72;4.25;;;10.20;47.10;;;;;;5074302;28;20559;-74
2021/10/09 11:17:36;;;;;;;8.37;3.80;;;10.20;47.30;;;;;;5090845;28;20016;-75
2021/10/09 11:20:04;;;;;;;12.52;5.05;;;10.20;46.50;;;;;;5093265;28;20036;-75
2021/10/09 11:22:39;;;;;;;10.38;4.85;;;10.20;47.20;;;;;;5095483;28;20026;-74
2021/10/09 11:25:05;;;;;;;7.60;4.70;;;10.20;47.80;;;;;;5089092;28;20217;-74
2021/10/09 11:27:36;;;;;;;9.05;5.15;;;10.20;47.20;;;;;;5095513;28;20035;-75
2021/10/09 11:30:11;;;;;;;8.05;4.05;;;10.30;48.20;;;;;;5095276;28;20533;-74
2021/10/09 11:32:38;;;;;;;7.85;4.20;;;10.40;48.70;;;;;;5075739;28;20017;-73
2021/10/09 11:35:06;;;;;;;5.90;4.05;;;10.30;47.40;;;;;;5086278;28;20024;-74
2021/10/09 11:37:33;;;;;;;6.75;4.82;;;10.20;46.50;;;;;;5091854;28;20062;-74
2021/10/09 11:40:02;;;;;;;7.78;4.63;;;10.20;47.00;;;;;;5091340;28;20024;-74
2021/10/09 11:42:32;;;;;;;7.10;4.15;;;10.30;47.50;;;;;;5087632;28;20021;-75
2021/10/09 11:56:40;;;;;;;11.05;4.90;;;10.40;46.40;;;;;;5076140;28;20125;-74
2021/10/09 11:59:07;;;;;;;5.75;3.92;;;10.30;45.10;;;;;;5079175;28;20526;-74
2021/10/09 12:01:38;;;;;;;7.35;4.90;;;10.40;45.30;;;;;;5091051;28;20413;-74
2021/10/09 12:04:17;;;;;;;11.85;5.20;;;10.50;46.00;;;;;;5091701;28;20043;-74
2021/10/09 12:06:44;;;;;;;9.38;4.65;;;10.50;46.00;;;;;;5080483;28;20394;-74
2021/10/09 12:09:10;;;;;;;8.88;4.03;;;10.60;46.10;;;;;;5073681;28;20035;-74
2021/10/09 12:11:36;;;;;;;10.18;4.72;;;10.70;45.80;;;;;;5072694;28;20035;-75
2021/10/09 12:14:10;;;;;;;12.82;5.45;;;10.80;46.00;;;;;;5074222;28;20024;-74
2021/10/09 12:16:45;;;;;;;6.03;4.03;;;10.90;46.30;;;;;;5074368;28;20415;-74
2021/10/09 12:19:16;;;;;;;8.82;4.82;;;10.90;46.00;;;;;;5075572;28;20377;-74
2021/10/09 12:21:54;;;;;;;7.37;4.57;;;10.70;44.30;;;;;;5074897;28;20066;-74
2021/10/09 12:24:25;;;;;;;8.95;5.55;;;10.60;44.00;;;;;;5078900;28;20265;-74
2021/10/09 12:27:03;;;;;;;9.00;4.95;;;10.60;45.10;;;;;;5083643;28;20027;-74
2021/10/09 12:29:29;;;;;;;13.80;6.60;;;10.50;45.10;;;;;;5077188;28;20017;-74
2021/10/09 12:32:11;;;;;;;9.02;5.10;;;10.50;44.70;;;;;;5075287;28;20077;-75
2021/10/09 12:34:36;;;;;;;11.45;5.57;;;10.60;46.40;;;;;;5073618;28;20439;-74
2021/10/09 12:37:24;;;;;;;10.15;5.50;;;10.70;47.60;;;;;;5072851;28;20115;-74
2021/10/09 12:40:16;;;;;;;10.88;6.22;;;10.70;47.20;;;;;;5072706;28;20031;-74
2021/10/09 12:42:44;;;;;;;11.70;6.40;;;10.70;46.90;;;;;;5074866;28;20363;-74
2021/10/09 12:45:10;;;;;;;9.70;5.15;;;10.70;47.80;;;;;;5079203;28;20040;-74
2021/10/09 12:47:36;;;;;;;12.82;5.93;;;10.70;47.20;;;;;;5091843;28;20088;-75
2021/10/09 12:50:01;;;;;;;10.32;4.18;;;10.70;47.30;;;;;;5092514;28;20401;-74
2021/10/09 12:52:27;;;;;;;7.80;5.00;;;10.70;47.20;;;;;;5086132;28;20104;-75
2021/10/09 12:54:52;;;;;;;7.55;4.20;;;10.70;46.90;;;;;;5068665;28;20044;-75
2021/10/09 12:57:18;;;;;;;8.02;5.70;;;10.70;46.70;;;;;;5070789;28;20428;-76
2021/10/09 12:59:44;;;;;;;10.88;5.10;;;10.70;46.90;;;;;;5076016;28;20531;-75
2021/10/09 13:02:09;;;;;;;9.10;4.65;;;10.70;47.00;;;;;;5074527;28;20020;-74
2021/10/09 13:04:35;;;;;;;6.53;4.28;;;10.70;46.80;;;;;;5079997;28;20031;-75
2021/10/09 13:07:01;;;;;;;9.90;4.93;;;10.60;46.70;;;;;;5088526;28;20020;-74
2021/10/09 13:09:27;;;;;;;11.20;5.75;;;10.70;47.10;;;;;;5072609;28;20042;-74
2021/10/09 13:12:01;;;;;;;8.55;5.45;;;10.70;47.90;;;;;;5069706;28;20024;-74
2021/10/09 13:14:27;;;;;;;7.97;5.00;;;10.80;48.00;;;;;;5086435;28;20056;-74
2021/10/09 13:16:53;;;;;;;7.38;5.43;;;10.80;48.10;;;;;;5072393;28;20475;-74
2021/10/09 13:19:19;;;;;;;8.77;5.43;;;10.80;48.10;;;;;;5079454;28;20078;-74
2021/10/09 13:21:44;;;;;;;12.10;5.75;;;10.80;48.60;;;;;;5080928;28;20027;-74
2021/10/09 13:24:10;;;;;;;7.47;4.20;;;10.80;48.00;;;;;;5074655;28;20024;-75
2021/10/09 13:26:36;;;;;;;7.03;4.45;;;10.70;47.40;;;;;;5081916;28;20024;-75
2021/10/09 13:29:02;;;;;;;11.57;5.55;;;10.60;47.10;;;;;;5082580;28;20375;-76
2021/10/09 13:31:28;;;;;;;9.05;5.30;;;10.60;47.30;;;;;;5083386;28;20028;-76
2021/10/09 13:33:54;;;;;;;6.97;5.43;;;10.70;48.00;;;;;;5077538;28;20499;-75
2021/10/09 13:36:21;;;;;;;9.60;4.95;;;10.60;46.90;;;;;;5079147;28;20055;-75
2021/10/09 13:38:47;;;;;;;6.90;4.25;;;10.60;47.40;;;;;;5078549;28;20024;-75
2021/10/09 13:41:12;;;;;;;10.43;5.38;;;10.60;47.30;;;;;;5081115;28;20020;-75
2021/10/09 13:43:38;;;;;;;8.90;4.47;;;10.70;48.50;;;;;;5083779;28;20053;-74
2021/10/09 13:46:05;;;;;;;7.88;4.47;;;10.80;49.50;;;;;;5078518;28;20036;-74
2021/10/09 13:48:31;;;;;;;7.68;4.63;;;10.70;48.70;;;;;;5085050;28;20012;-75
2021/10/09 13:50:57;;;;;;;11.18;4.93;;;10.70;47.20;;;;;;5082386;28;20115;-74
2021/10/09 13:53:23;;;;;;;9.63;4.32;;;10.70;48.00;;;;;;5080951;28;20035;-74
2021/10/09 13:55:50;;;;;;;9.07;4.28;;;10.60;47.70;;;;;;5080373;28;21161;-75
2021/10/09 13:58:16;;;;;;;10.75;4.32;;;10.60;47.70;;;;;;5078785;28;20063;-74
2021/10/09 14:00:44;;;;;;;7.80;4.55;;;10.60;48.20;;;;;;5081987;28;20039;-75
2021/10/09 14:03:11;;;;;;;10.27;4.80;;;10.60;48.40;;;;;;5078197;28;20031;-75
2021/10/09 14:05:37;;;;;;;8.50;4.30;;;10.60;47.90;;;;;;5075785;28;20121;-75
2021/10/09 14:08:03;;;;;;;8.18;3.95;;;10.50;47.70;;;;;;5074340;28;20031;-74
2021/10/09 14:10:30;;;;;;;6.75;3.90;;;10.50;48.20;;;;;;5078933;28;20024;-75
2021/10/09 14:12:57;;;;;;;11.73;4.35;;;10.50;47.60;;;;;;5084866;28;20032;-74
2021/10/09 14:15:23;;;;;;;11.18;4.30;;;10.60;48.10;;;;;;5074294;28;20474;-73
2021/10/09 14:17:49;;;;;;;5.50;4.55;;;10.50;48.40;;;;;;5072939;28;20012;-75
2021/10/09 14:20:15;;;;;;;9.98;4.60;;;10.50;47.50;;;;;;5078553;28;20031;-75
2021/10/09 14:22:41;;;;;;;10.23;4.97;;;10.40;47.80;;;;;;5074890;28;20020;-75
2021/10/09 14:25:09;;;;;;;9.88;5.35;;;10.40;48.50;;;;;;5072820;28;20028;-76
2021/10/09 14:27:35;;;;;;;12.20;5.15;;;10.40;48.50;;;;;;5076363;28;20085;-76
2021/10/09 14:30:01;;;;;;;9.68;4.75;;;10.40;48.80;;;;;;5081227;28;20474;-76
2021/10/09 14:32:27;;;;;;;10.80;5.68;;;10.40;48.50;;;;;;5090059;28;20024;-76
2021/10/09 14:34:53;;;;;;;9.23;4.53;;;10.30;48.60;;;;;;5070572;28;20045;-76
2021/10/09 14:37:19;;;;;;;7.53;4.32;;;10.40;48.80;;;;;;5073600;28;20021;-75
2021/10/09 14:39:45;;;;;;;8.98;4.30;;;10.30;48.80;;;;;;5070115;28;20036;-76
2021/10/09 14:42:12;;;;;;;6.65;4.40;;;10.20;48.30;;;;;;5091052;28;20035;-76
2021/10/09 14:44:38;;;;;;;11.00;4.97;;;10.20;48.80;;;;;;5072321;28;20069;-76
2021/10/09 14:55:32;;;;;;;9.60;5.68;;;10.10;49.10;;;;;;5075227;28;20606;-76
2021/10/09 15:19:52;;;;;;;11.45;5.50;;;9.70;52.40;;;;;;5086052;28;20039;-76
2021/10/09 15:22:17;;;;;;;9.65;5.53;;;9.60;52.70;;;;;;5086162;28;20016;-76
2021/10/09 15:24:43;;;;;;;10.93;6.53;;;9.50;53.50;;;;;;5087326;28;20044;-76
2021/10/09 15:27:09;;;;;;;13.85;5.85;;;9.40;53.50;;;;;;5089284;28;20017;-76
2021/10/09 15:29:34;;;;;;;7.03;5.18;;;9.40;54.20;;;;;;5070293;28;20029;-76
2021/10/09 15:32:00;;;;;;;15.13;7.28;;;9.30;54.60;;;;;;5068342;28;20537;-76
2021/10/09 15:34:26;;;;;;;11.75;8.30;;;9.30;54.70;;;;;;5077502;28;20450;-77
2021/10/09 15:36:52;;;;;;;23.05;17.48;;;9.20;55.10;;;;;;5078501;28;20048;-76
2021/10/09 15:39:18;;;;;;;16.55;11.15;;;9.10;55.70;;;;;;5079419;28;20055;-76
2021/10/09 15:41:44;;;;;;;11.57;8.02;;;9.00;56.30;;;;;;5074544;28;20092;-76
2021/10/09 15:44:09;;;;;;;18.77;12.32;;;8.90;56.90;;;;;;5076669;28;20088;-76